Terminal Aerodrome Forecast
Issued by NWS Cleveland, OH

Home | Current Version | Previous Version | Graphics & Text | Print | Product List | Glossary On
Versions: 1 2 3 4 5 6 7 8 9 10 11 12 13 14 15 16 17 18 19 20 21 22 23
000
FTUS41 KCLE 161100 RRA
TAFTOL
TAF
KTOL 161145Z 1612/1712 14004KT 3SM -SHRA BR SCT006 OVC014
      TEMPO 1612/1614 22008KT 2SM -DZ BR OVC006
     FM161400 24008KT 4SM -SHRA BR OVC006
      TEMPO 1614/1618 25010KT 2SM -RA OVC002
     FM170000 25012G22KT P6SM OVC008
     FM170500 25015G25KT P6SM BKN014=

USA.gov is the U.S. government's official web portal to all federal, state and local government web resources and services.